createdAt,value
2018-05-10T00:00:21.901Z,95.10
2018-05-10T00:01:24.431Z,95.10
2018-05-10T00:02:26.965Z,95.00
2018-05-10T00:03:29.497Z,95.10
2018-05-10T00:04:32.083Z,95.10
2018-05-10T00:05:34.607Z,95.00
2018-05-10T00:06:37.135Z,95.00
2018-05-10T00:07:39.737Z,95.10
2018-05-10T00:08:42.201Z,95.10
2018-05-10T00:09:45.540Z,95.40
2018-05-10T00:10:48.065Z,95.20
2018-05-10T00:11:51.396Z,95.30
2018-05-10T00:12:53.927Z,95.30
2018-05-10T00:13:57.224Z,95.20
2018-05-10T00:14:59.756Z,95.20
2018-05-10T00:16:02.281Z,95.30
2018-05-10T00:17:04.858Z,95.50
2018-05-10T00:18:07.388Z,95.30
2018-05-10T00:19:09.912Z,95.40
2018-05-10T00:20:12.433Z,95.40
2018-05-10T00:21:15.008Z,95.50
2018-05-10T00:22:17.532Z,95.60
2018-05-10T00:23:20.824Z,95.90
2018-05-10T00:24:23.433Z,95.90
2018-05-10T00:25:26.683Z,96.10
2018-05-10T00:26:29.253Z,96.10
2018-05-10T00:27:31.822Z,96.30
2018-05-10T00:28:34.355Z,96.30
2018-05-10T00:29:36.922Z,96.30
2018-05-10T00:30:39.452Z,96.40
2018-05-10T00:31:41.984Z,96.40
2018-05-10T00:32:44.555Z,96.30
2018-05-10T00:33:47.089Z,96.10
2018-05-10T00:34:50.394Z,95.50
2018-05-10T00:35:52.956Z,95.50
2018-05-10T00:36:56.268Z,95.40
2018-05-10T00:37:58.824Z,95.40
2018-05-10T00:39:01.366Z,95.50
2018-05-10T00:40:03.883Z,95.20
2018-05-10T00:41:06.449Z,95.40
2018-05-10T00:42:08.976Z,95.50
2018-05-10T00:43:11.518Z,95.50
2018-05-10T00:44:14.852Z,95.50
2018-05-10T00:45:17.381Z,95.50
2018-05-10T00:46:20.680Z,95.60
2018-05-10T00:47:23.218Z,95.60
2018-05-10T00:48:26.521Z,95.80
2018-05-10T00:49:29.837Z,95.90
2018-05-10T00:50:32.385Z,95.80
2018-05-10T00:51:34.911Z,96.00
2018-05-10T00:52:37.486Z,96.00
2018-05-10T00:53:40.008Z,96.00
2018-05-10T00:54:54.796Z,95.90
2018-05-10T00:55:57.343Z,96.10
2018-05-10T00:56:59.863Z,96.00
2018-05-10T00:58:02.420Z,96.10
2018-05-10T00:59:04.946Z,96.20
2018-05-10T01:00:07.483Z,96.40
2018-05-10T01:01:10.036Z,96.40
2018-05-10T01:02:12.561Z,96.50
2018-05-10T01:03:15.104Z,96.60
2018-05-10T01:04:17.677Z,96.70
2018-05-10T01:05:20.201Z,96.80
2018-05-10T01:06:22.783Z,97.00
2018-05-10T01:07:25.319Z,97.10
2018-05-10T01:08:28.058Z,97.00
2018-05-10T01:09:30.624Z,96.90
2018-05-10T01:10:33.149Z,96.80
2018-05-10T01:11:35.686Z,97.00
2018-05-10T01:12:38.980Z,97.10
2018-05-10T01:13:41.559Z,97.00
2018-05-10T01:14:44.128Z,97.00
2018-05-10T01:15:46.658Z,97.00
2018-05-10T01:16:49.176Z,97.20
2018-05-10T01:17:51.732Z,97.30
2018-05-10T01:18:54.314Z,97.20
2018-05-10T01:19:56.884Z,97.50
2018-05-10T01:20:59.417Z,97.70
2018-05-10T01:22:01.950Z,97.50
2018-05-10T01:23:04.484Z,97.30
2018-05-10T01:24:07.013Z,97.30
2018-05-10T01:25:09.571Z,97.40
2018-05-10T01:26:12.863Z,97.20
2018-05-10T01:27:15.392Z,97.30
2018-05-10T01:28:17.960Z,97.10
2018-05-10T01:29:20.489Z,96.70
2018-05-10T01:30:23.023Z,96.70
2018-05-10T01:31:26.347Z,96.90
2018-05-10T01:32:28.876Z,96.90
2018-05-10T01:33:31.396Z,97.00
2018-05-10T01:34:33.930Z,96.90
2018-05-10T01:35:48.306Z,97.00
2018-05-10T01:36:50.842Z,97.00
2018-05-10T01:37:53.370Z,97.00
2018-05-10T01:38:56.670Z,97.10
2018-05-10T01:39:59.223Z,97.10
2018-05-10T01:41:02.536Z,97.30
2018-05-10T01:42:05.064Z,97.30
2018-05-10T01:43:08.351Z,97.50
2018-05-10T01:44:11.640Z,97.60
2018-05-10T01:45:14.989Z,97.60
2018-05-10T01:46:17.525Z,97.60
2018-05-10T01:47:20.047Z,97.50
2018-05-10T01:48:23.338Z,97.70
2018-05-10T01:49:26.629Z,97.90
2018-05-10T01:50:29.956Z,98.00
2018-05-10T01:51:32.552Z,98.00
2018-05-10T01:52:35.072Z,98.00
2018-05-10T01:53:37.596Z,98.00
2018-05-10T01:54:40.888Z,98.00
2018-05-10T01:55:44.195Z,97.90
2018-05-10T01:56:46.760Z,97.90
2018-05-10T01:57:49.280Z,98.00
2018-05-10T01:58:51.805Z,97.90
2018-05-10T01:59:54.344Z,97.80
2018-05-10T02:00:57.637Z,97.60
2018-05-10T02:02:00.215Z,97.70
2018-05-10T02:03:02.740Z,97.80
2018-05-10T02:04:05.296Z,97.80
2018-05-10T02:05:07.836Z,97.80
2018-05-10T02:06:11.132Z,97.90
2018-05-10T02:07:13.659Z,97.90
2018-05-10T02:08:16.234Z,97.90
2018-05-10T02:09:18.774Z,97.90
2018-05-10T02:10:22.067Z,98.20
2018-05-10T02:11:24.604Z,98.20
2018-05-10T02:12:27.167Z,98.20
2018-05-10T02:13:29.695Z,98.20
2018-05-10T02:14:32.269Z,98.30
2018-05-10T02:15:34.842Z,98.40
2018-05-10T02:16:37.360Z,98.70
2018-05-10T02:17:39.954Z,98.50
2018-05-10T02:18:42.584Z,98.40
2018-05-10T02:19:45.079Z,98.50
2018-05-10T02:20:47.610Z,98.40
2018-05-10T02:21:50.903Z,98.90
2018-05-10T02:22:54.201Z,98.70
2018-05-10T02:23:56.768Z,98.70
2018-05-10T02:24:59.292Z,98.70
2018-05-10T02:26:01.816Z,98.70
2018-05-10T02:27:04.345Z,98.70
2018-05-10T02:28:07.751Z,98.80
2018-05-10T02:29:10.276Z,98.80
2018-05-10T02:30:12.811Z,98.90
2018-05-10T02:31:15.380Z,99.00
2018-05-10T02:32:19.045Z,98.90
2018-05-10T02:33:21.610Z,99.10
2018-05-10T02:34:24.139Z,99.20
2018-05-10T02:35:26.665Z,99.20
2018-05-10T02:36:29.234Z,99.10
2018-05-10T02:37:31.781Z,99.00
2018-05-10T02:38:34.314Z,99.10
2018-05-10T02:39:37.648Z,98.90
2018-05-10T02:40:40.173Z,99.10
2018-05-10T02:41:43.460Z,99.10
2018-05-10T02:42:46.761Z,99.20
2018-05-10T02:43:49.428Z,99.20
2018-05-10T02:44:51.970Z,99.30
2018-05-10T02:45:55.274Z,99.50
2018-05-10T02:46:57.866Z,99.50
2018-05-10T02:48:00.401Z,99.60
2018-05-10T02:49:03.693Z,99.50
2018-05-10T02:50:06.227Z,99.50
2018-05-10T02:51:08.752Z,99.50
2018-05-10T02:52:11.331Z,99.50
2018-05-10T02:53:13.867Z,99.50
2018-05-10T02:54:16.396Z,99.30
2018-05-10T02:55:19.704Z,99.30
2018-05-10T02:56:22.248Z,99.30
2018-05-10T02:57:24.808Z,99.10
2018-05-10T02:58:27.372Z,99.20
2018-05-10T02:59:29.929Z,99.50
2018-05-10T03:00:32.458Z,99.50
2018-05-10T03:01:34.989Z,99.50
2018-05-10T03:02:38.319Z,99.60
2018-05-10T03:03:40.855Z,99.60
2018-05-10T03:04:43.397Z,99.60
2018-05-10T03:05:45.954Z,99.60
2018-05-10T03:06:48.504Z,99.90
2018-05-10T03:07:51.031Z,99.80
2018-05-10T03:08:53.563Z,99.60
2018-05-10T03:09:56.084Z,99.60
2018-05-10T03:10:58.611Z,99.80
2018-05-10T03:12:01.940Z,99.40
2018-05-10T03:13:04.468Z,99.40
2018-05-10T03:14:07.009Z,99.50
2018-05-10T03:15:10.314Z,99.90
2018-05-10T03:16:12.845Z,99.90
2018-05-10T03:17:16.191Z,99.90
2018-05-10T03:18:18.721Z,99.90
2018-05-10T03:19:22.016Z,99.90
2018-05-10T03:20:24.591Z,99.90
2018-05-10T03:21:27.140Z,99.90
2018-05-10T03:22:29.661Z,99.90
2018-05-10T03:23:32.967Z,99.90
2018-05-10T03:24:35.489Z,99.90
2018-05-10T03:25:38.039Z,99.90
2018-05-10T03:26:40.584Z,99.90
2018-05-10T03:27:43.871Z,99.90
2018-05-10T03:28:46.419Z,99.90
2018-05-10T03:29:48.949Z,99.90
2018-05-10T03:30:51.529Z,99.90
2018-05-10T03:31:54.052Z,99.90
2018-05-10T03:32:56.588Z,99.90
2018-05-10T03:33:59.121Z,99.70
2018-05-10T03:35:01.664Z,99.60
2018-05-10T03:36:04.228Z,99.20
2018-05-10T03:37:06.753Z,99.10
2018-05-10T03:38:09.286Z,99.10
2018-05-10T03:40:20.588Z,99.20
2018-05-10T03:41:23.127Z,99.30
2018-05-10T03:42:25.655Z,99.40
2018-05-10T03:43:28.216Z,99.60
2018-05-10T03:44:30.747Z,99.60
2018-05-10T03:45:33.307Z,99.60
2018-05-10T03:46:36.597Z,99.70
2018-05-10T03:47:39.124Z,99.70
2018-05-10T03:48:41.689Z,99.60
2018-05-10T03:49:44.209Z,99.60
2018-05-10T03:50:46.752Z,99.60
2018-05-10T03:51:49.281Z,99.60
2018-05-10T03:52:51.808Z,99.80
2018-05-10T03:53:54.368Z,99.90
2018-05-10T03:54:56.900Z,99.90
2018-05-10T03:55:59.465Z,99.90
2018-05-10T03:57:01.995Z,99.90
2018-05-10T03:58:05.298Z,99.90
2018-05-10T03:59:07.820Z,99.90
2018-05-10T04:01:19.260Z,99.90
2018-05-10T04:04:25.654Z,99.90
2018-05-10T04:05:40.016Z,99.90
2018-05-10T04:06:54.351Z,99.90
2018-05-10T04:08:08.799Z,99.90
2018-05-10T04:09:23.173Z,99.90
2018-05-10T04:10:38.413Z,99.90
2018-05-10T04:11:40.948Z,99.90
2018-05-10T04:12:43.481Z,99.90
2018-05-10T04:13:46.015Z,99.90
2018-05-10T04:14:49.349Z,99.90
2018-05-10T04:15:51.875Z,99.90
2018-05-10T04:16:55.204Z,99.90
2018-05-10T04:17:57.727Z,99.90
2018-05-10T04:19:01.018Z,99.90
2018-05-10T04:20:03.579Z,99.90
2018-05-10T04:21:06.880Z,99.90
2018-05-10T04:22:09.455Z,99.90
2018-05-10T04:23:11.973Z,99.90
2018-05-10T04:24:14.499Z,99.90
2018-05-10T04:25:17.015Z,99.90
2018-05-10T04:26:20.322Z,99.90
2018-05-10T04:27:22.883Z,99.90
2018-05-10T04:28:25.421Z,99.90
2018-05-10T04:29:27.945Z,99.90
2018-05-10T04:30:30.480Z,99.90
2018-05-10T04:31:33.804Z,99.90
2018-05-10T04:32:36.331Z,99.90
2018-05-10T04:33:39.652Z,99.90
2018-05-10T04:34:42.183Z,99.90
2018-05-10T04:35:45.482Z,99.90
2018-05-10T04:36:48.025Z,99.90
2018-05-10T04:37:51.352Z,99.90
2018-05-10T04:38:53.886Z,99.90
2018-05-10T04:39:56.454Z,99.90
2018-05-10T04:40:58.980Z,99.90
2018-05-10T04:42:01.508Z,99.90
2018-05-10T04:43:04.072Z,99.90
2018-05-10T04:44:06.600Z,99.90
2018-05-10T04:45:09.900Z,99.90
2018-05-10T04:46:13.225Z,99.90
2018-05-10T04:47:15.751Z,99.90
2018-05-10T04:48:19.049Z,99.70
2018-05-10T04:49:21.692Z,99.70
2018-05-10T04:50:24.993Z,99.70
2018-05-10T04:51:27.520Z,99.70
2018-05-10T04:52:30.051Z,99.80
2018-05-10T04:53:32.575Z,99.90
2018-05-10T04:54:35.899Z,99.90
2018-05-10T04:55:38.446Z,99.90
2018-05-10T04:56:40.995Z,99.90
2018-05-10T04:57:44.288Z,99.90
2018-05-10T04:58:46.825Z,99.90
2018-05-10T04:59:49.394Z,99.90
2018-05-10T05:00:51.923Z,99.90
2018-05-10T05:01:54.495Z,99.90
2018-05-10T05:02:57.025Z,99.90
2018-05-10T05:03:59.593Z,99.90
2018-05-10T05:05:02.133Z,99.90
2018-05-10T05:06:05.433Z,99.60
2018-05-10T05:07:08.772Z,99.50
2018-05-10T05:08:11.313Z,99.50
2018-05-10T05:09:13.849Z,99.40
2018-05-10T05:10:17.135Z,99.40
2018-05-10T05:11:20.434Z,99.40
2018-05-10T05:12:23.004Z,99.40
2018-05-10T05:13:25.529Z,99.30
2018-05-10T05:14:28.091Z,99.30
2018-05-10T05:15:30.625Z,98.90
2018-05-10T05:16:33.153Z,99.10
2018-05-10T05:17:35.686Z,99.10
2018-05-10T05:18:38.219Z,98.90
2018-05-10T05:19:40.779Z,98.90
2018-05-10T05:20:43.304Z,98.90
2018-05-10T05:21:46.598Z,99.20
2018-05-10T05:22:49.891Z,99.30
2018-05-10T05:23:52.454Z,99.30
2018-05-10T05:24:54.985Z,99.20
2018-05-10T05:25:57.513Z,99.20
2018-05-10T05:27:00.077Z,99.10
2018-05-10T05:28:02.605Z,99.10
2018-05-10T05:29:05.923Z,99.10
2018-05-10T05:30:08.452Z,99.00
2018-05-10T05:31:11.754Z,99.10
2018-05-10T05:32:14.287Z,99.10
2018-05-10T05:33:16.819Z,99.10
2018-05-10T05:34:19.383Z,99.00
2018-05-10T05:35:21.921Z,99.20
2018-05-10T05:36:24.468Z,99.20
2018-05-10T05:37:27.798Z,99.10
2018-05-10T05:38:30.333Z,99.10
2018-05-10T05:39:32.936Z,99.10
2018-05-10T05:40:35.470Z,99.30
2018-05-10T05:41:37.999Z,99.20
2018-05-10T05:42:40.626Z,99.30
2018-05-10T05:43:43.193Z,99.20
2018-05-10T05:44:45.716Z,99.30
2018-05-10T05:45:49.009Z,99.40
2018-05-10T05:46:52.315Z,99.30
2018-05-10T05:47:54.885Z,99.30
2018-05-10T05:48:57.418Z,99.20
2018-05-10T05:50:00.713Z,99.00
2018-05-10T05:51:03.240Z,99.00
2018-05-10T05:52:05.781Z,99.10
2018-05-10T05:53:08.345Z,99.20
2018-05-10T05:54:10.883Z,99.00
2018-05-10T05:55:13.412Z,99.00
2018-05-10T05:56:15.953Z,99.00
2018-05-10T05:57:18.486Z,98.90
2018-05-10T05:58:21.067Z,98.90
2018-05-10T05:59:23.600Z,99.10
2018-05-10T06:00:26.931Z,99.10
2018-05-10T06:01:29.465Z,99.10
2018-05-10T06:02:31.995Z,99.10
2018-05-10T06:03:34.524Z,99.10
2018-05-10T06:04:37.099Z,99.00
2018-05-10T06:05:39.664Z,99.10
2018-05-10T06:06:42.189Z,98.90
2018-05-10T06:07:45.484Z,98.90
2018-05-10T06:08:48.129Z,98.90
2018-05-10T06:09:51.327Z,99.30
2018-05-10T06:10:53.897Z,99.30
2018-05-10T06:11:56.437Z,99.10
2018-05-10T06:12:58.968Z,99.10
2018-05-10T06:14:01.492Z,99.00
2018-05-10T06:15:04.024Z,99.20
2018-05-10T06:16:06.592Z,99.60
2018-05-10T06:17:09.934Z,99.40
2018-05-10T06:18:12.461Z,99.40
2018-05-10T06:19:15.752Z,99.10
2018-05-10T06:20:19.086Z,99.20
2018-05-10T06:21:21.642Z,99.20
2018-05-10T06:22:24.168Z,99.20
2018-05-10T06:23:27.463Z,99.30
2018-05-10T06:24:29.997Z,99.30
2018-05-10T06:25:32.563Z,99.40
2018-05-10T06:26:35.088Z,99.30
2018-05-10T06:27:37.666Z,99.40
2018-05-10T06:28:40.193Z,99.20
2018-05-10T06:29:42.730Z,99.40
2018-05-10T06:30:45.263Z,99.00
2018-05-10T06:31:47.788Z,98.60
2018-05-10T06:32:50.355Z,98.70
2018-05-10T06:33:53.724Z,98.50
2018-05-10T06:34:56.210Z,98.80
2018-05-10T06:35:58.731Z,98.10
2018-05-10T06:37:01.261Z,98.30
2018-05-10T06:38:03.825Z,98.10
2018-05-10T06:39:06.346Z,98.70
2018-05-10T06:40:08.880Z,99.00
2018-05-10T06:41:11.413Z,98.60
2018-05-10T06:42:13.940Z,98.90
2018-05-10T06:43:16.509Z,98.90
2018-05-10T06:44:19.037Z,98.50
2018-05-10T06:45:21.560Z,98.30
2018-05-10T06:46:24.844Z,98.20
2018-05-10T06:47:28.146Z,98.10
2018-05-10T06:48:30.732Z,98.10
2018-05-10T06:49:33.259Z,98.30
2018-05-10T06:50:36.547Z,98.20
2018-05-10T06:51:39.848Z,97.90
2018-05-10T06:52:42.381Z,97.90
2018-05-10T06:53:44.935Z,97.80
2018-05-10T06:54:47.467Z,97.90
2018-05-10T06:55:49.984Z,97.90
2018-05-10T06:56:53.287Z,97.60
2018-05-10T06:57:55.821Z,97.60
2018-05-10T06:58:58.399Z,97.70
2018-05-10T07:00:01.696Z,97.00
2018-05-10T07:01:04.993Z,97.10
2018-05-10T07:02:07.531Z,97.10
2018-05-10T07:03:10.056Z,97.70
2018-05-10T07:04:13.376Z,98.30
2018-05-10T07:05:15.909Z,98.30
2018-05-10T07:06:18.466Z,97.60
2018-05-10T07:07:20.995Z,97.60
2018-05-10T07:08:24.297Z,97.00
2018-05-10T07:09:27.055Z,97.00
2018-05-10T07:10:30.191Z,97.10
2018-05-10T07:11:32.733Z,97.00
2018-05-10T07:12:35.261Z,97.40
2018-05-10T07:13:38.573Z,97.60
2018-05-10T07:14:41.109Z,97.60
2018-05-10T07:15:44.443Z,97.20
2018-05-10T07:16:46.961Z,97.20
2018-05-10T07:17:50.265Z,96.30
2018-05-10T07:18:52.799Z,96.30
2018-05-10T07:19:56.100Z,96.10
2018-05-10T07:20:58.681Z,96.10
2018-05-10T07:22:01.209Z,96.40
2018-05-10T07:23:03.740Z,96.20
2018-05-10T07:24:06.264Z,95.90
2018-05-10T07:25:09.648Z,95.70
2018-05-10T07:26:12.174Z,95.70
2018-05-10T07:27:14.699Z,95.90
2018-05-10T07:28:17.220Z,95.80
2018-05-10T07:29:19.744Z,95.50
2018-05-10T07:30:22.277Z,95.50
2018-05-10T07:31:25.608Z,95.40
2018-05-10T07:32:28.169Z,95.40
2018-05-10T07:33:30.753Z,95.50
2018-05-10T07:34:33.271Z,95.20
2018-05-10T07:35:35.809Z,94.70
2018-05-10T07:36:38.344Z,94.80
2018-05-10T07:37:40.872Z,94.40
2018-05-10T07:38:43.454Z,93.80
2018-05-10T07:39:45.996Z,93.90
2018-05-10T07:40:48.532Z,93.60
2018-05-10T07:41:51.073Z,93.20
2018-05-10T07:42:53.606Z,93.10
2018-05-10T07:43:56.189Z,93.40
2018-05-10T07:44:58.722Z,93.00
2018-05-10T07:46:01.257Z,93.40
2018-05-10T07:47:03.789Z,93.10
2018-05-10T07:48:06.321Z,92.70
2018-05-10T07:49:08.909Z,92.00
2018-05-10T07:50:11.431Z,92.50
2018-05-10T07:51:14.729Z,91.90
2018-05-10T07:52:18.070Z,91.70
2018-05-10T07:53:20.627Z,91.70
2018-05-10T07:55:32.167Z,91.60
2018-05-10T07:56:35.463Z,91.30
2018-05-10T07:57:38.024Z,91.30
2018-05-10T07:58:40.561Z,90.80
2018-05-10T07:59:43.147Z,91.00
2018-05-10T08:00:45.733Z,90.90
2018-05-10T08:01:48.265Z,91.30
2018-05-10T08:02:50.837Z,91.10
2018-05-10T08:03:53.372Z,91.10
2018-05-10T08:04:55.963Z,91.20
2018-05-10T08:05:58.496Z,91.80
2018-05-10T08:07:01.805Z,91.80
2018-05-10T08:08:04.343Z,91.50
2018-05-10T08:09:06.881Z,90.50
2018-05-10T08:10:09.488Z,90.40
2018-05-10T08:11:12.015Z,89.90
2018-05-10T08:12:14.550Z,90.20
2018-05-10T08:13:17.851Z,90.50
2018-05-10T08:14:21.147Z,90.40
2018-05-10T08:15:23.719Z,90.40
2018-05-10T08:16:26.259Z,89.60
2018-05-10T08:17:29.578Z,88.70
2018-05-10T08:18:32.124Z,88.70
2018-05-10T08:19:34.670Z,89.40
2018-05-10T08:20:38.020Z,88.00
2018-05-10T08:21:40.590Z,88.00
2018-05-10T08:22:43.122Z,87.70
2018-05-10T08:23:48.517Z,88.20
2018-05-10T08:24:51.077Z,87.20
2018-05-10T08:25:53.625Z,86.80
2018-05-10T08:26:56.147Z,86.70
2018-05-10T08:27:58.715Z,86.70
2018-05-10T08:29:01.245Z,86.00
2018-05-10T08:30:03.776Z,85.80
2018-05-10T08:31:06.301Z,85.20
2018-05-10T08:32:09.601Z,86.30
2018-05-10T08:33:12.166Z,86.20
2018-05-10T08:34:14.707Z,86.30
2018-05-10T08:35:17.244Z,86.60
2018-05-10T08:36:19.780Z,86.50
2018-05-10T08:37:22.361Z,85.30
2018-05-10T08:38:24.951Z,85.90
2018-05-10T08:39:27.467Z,85.60
2018-05-10T08:40:30.019Z,84.50
2018-05-10T08:41:32.561Z,85.40
2018-05-10T08:42:35.178Z,84.90
2018-05-10T08:43:37.723Z,84.40
2018-05-10T08:44:40.250Z,83.90
2018-05-10T08:45:42.777Z,82.50
2018-05-10T08:46:45.301Z,83.00
2018-05-10T08:47:47.881Z,82.00
2018-05-10T08:48:50.414Z,81.20
2018-05-10T08:49:52.939Z,81.80
2018-05-10T08:50:55.481Z,83.20
2018-05-10T08:51:58.833Z,81.00
2018-05-10T08:53:01.386Z,81.00
2018-05-10T08:54:03.921Z,81.20
2018-05-10T08:55:06.459Z,80.00
2018-05-10T08:56:09.760Z,81.50
2018-05-10T08:57:12.295Z,81.40
2018-05-10T08:58:14.863Z,82.90
2018-05-10T08:59:17.428Z,81.90
2018-05-10T09:00:20.728Z,81.20
2018-05-10T09:01:24.020Z,81.70
2018-05-10T09:02:26.555Z,81.60
2018-05-10T09:03:29.087Z,79.30
2018-05-10T09:04:31.740Z,78.30
2018-05-10T09:05:34.305Z,78.60
2018-05-10T09:06:36.832Z,79.40
2018-05-10T09:07:39.369Z,78.70
2018-05-10T09:08:41.913Z,78.70
2018-05-10T09:09:44.479Z,79.00
2018-05-10T09:10:47.011Z,79.60
2018-05-10T09:11:50.343Z,79.50
2018-05-10T09:12:53.665Z,78.20
2018-05-10T09:13:56.249Z,78.10
2018-05-10T09:14:59.566Z,77.40
2018-05-10T09:16:02.140Z,76.70
2018-05-10T09:17:04.679Z,77.70
2018-05-10T09:18:07.217Z,77.70
2018-05-10T09:19:10.545Z,77.80
2018-05-10T09:20:13.087Z,77.40
2018-05-10T09:21:16.405Z,77.20
2018-05-10T09:22:18.922Z,77.20
2018-05-10T09:23:22.216Z,75.90
2018-05-10T09:24:25.538Z,76.30
2018-05-10T09:25:28.068Z,76.30
2018-05-10T09:26:31.364Z,76.20
2018-05-10T09:27:33.895Z,76.10
2018-05-10T09:28:36.425Z,76.10
2018-05-10T09:29:39.005Z,76.20
2018-05-10T09:30:41.541Z,77.10
2018-05-10T09:31:44.074Z,76.70
2018-05-10T09:32:47.371Z,73.90
2018-05-10T09:33:50.795Z,74.50
2018-05-10T09:34:53.296Z,74.40
2018-05-10T09:35:55.833Z,74.70
2018-05-10T09:36:58.368Z,73.90
2018-05-10T09:38:00.893Z,74.90
2018-05-10T09:39:03.425Z,76.50
2018-05-10T09:40:05.989Z,75.80
2018-05-10T09:41:08.521Z,77.90
2018-05-10T09:42:11.056Z,79.00
2018-05-10T09:43:13.595Z,77.70
2018-05-10T09:44:16.121Z,78.00
2018-05-10T09:45:18.683Z,78.50
2018-05-10T09:46:22.004Z,77.80
2018-05-10T09:47:24.541Z,77.80
2018-05-10T09:48:27.071Z,79.50
2018-05-10T09:49:29.613Z,78.60
2018-05-10T09:50:32.177Z,79.50
2018-05-10T09:51:34.715Z,79.50
2018-05-10T09:52:37.325Z,78.40
2018-05-10T09:53:39.808Z,78.10
2018-05-10T09:54:42.368Z,78.30
2018-05-10T09:55:44.934Z,78.80
2018-05-10T09:56:47.470Z,78.50
2018-05-10T09:57:50.019Z,79.10
2018-05-10T09:58:52.553Z,79.10
2018-05-10T09:59:55.940Z,79.80
2018-05-10T10:00:58.433Z,80.50
2018-05-10T10:02:00.970Z,78.60
2018-05-10T10:03:04.273Z,78.00
2018-05-10T10:04:06.819Z,77.90
2018-05-10T10:05:10.111Z,78.60
2018-05-10T10:06:13.536Z,78.00
2018-05-10T10:07:16.004Z,78.00
2018-05-10T10:08:19.303Z,78.40
2018-05-10T10:09:21.836Z,78.10
2018-05-10T10:10:24.363Z,78.40
2018-05-10T10:11:27.693Z,77.70
2018-05-10T10:12:30.232Z,77.70
2018-05-10T10:13:32.780Z,77.60
2018-05-10T10:14:36.135Z,78.40
2018-05-10T10:15:38.687Z,78.40
2018-05-10T10:16:41.341Z,80.00
2018-05-10T10:17:43.969Z,79.60
2018-05-10T10:18:46.472Z,79.10
2018-05-10T10:19:49.003Z,79.20
2018-05-10T10:20:52.303Z,81.40
2018-05-10T10:21:54.835Z,80.70
2018-05-10T10:22:57.404Z,79.40
2018-05-10T10:23:59.929Z,79.30
2018-05-10T10:25:02.458Z,79.90
2018-05-10T10:26:05.761Z,81.60
2018-05-10T10:27:08.324Z,81.60
2018-05-10T10:28:10.901Z,79.00
2018-05-10T10:29:13.478Z,80.40
2018-05-10T10:30:16.008Z,81.60
2018-05-10T10:31:18.566Z,80.80
2018-05-10T10:32:21.145Z,79.60
2018-05-10T10:33:23.703Z,79.90
2018-05-10T10:34:26.256Z,80.50
2018-05-10T10:35:28.780Z,81.10
2018-05-10T10:36:31.372Z,82.30
2018-05-10T10:37:33.903Z,82.50
2018-05-10T10:38:36.433Z,81.40
2018-05-10T10:39:38.957Z,80.90
2018-05-10T10:40:41.500Z,81.30
2018-05-10T10:41:44.072Z,81.00
2018-05-10T10:42:46.697Z,82.00
2018-05-10T10:43:49.269Z,80.60
2018-05-10T10:44:51.888Z,81.60
2018-05-10T10:45:54.419Z,82.30
2018-05-10T10:46:56.951Z,81.70
2018-05-10T10:47:59.536Z,79.40
2018-05-10T10:49:02.839Z,79.70
2018-05-10T10:50:05.376Z,79.60
2018-05-10T10:51:08.690Z,80.90
2018-05-10T10:52:11.225Z,80.70
2018-05-10T10:53:13.795Z,81.10
2018-05-10T10:54:16.325Z,80.30
2018-05-10T10:55:18.893Z,79.60
2018-05-10T10:56:21.425Z,80.80
2018-05-10T10:57:23.962Z,80.60
2018-05-10T10:58:26.496Z,80.50
2018-05-10T10:59:29.068Z,79.80
2018-05-10T11:00:31.620Z,79.20
2018-05-10T11:01:34.194Z,78.90
2018-05-10T11:02:36.734Z,79.30
2018-05-10T11:03:39.264Z,80.00
2018-05-10T11:04:42.587Z,79.40
2018-05-10T11:05:45.109Z,79.00
2018-05-10T11:06:47.647Z,78.80
2018-05-10T11:07:50.216Z,79.30
2018-05-10T11:08:52.757Z,79.60
2018-05-10T11:09:55.337Z,78.90
2018-05-10T11:10:57.863Z,79.60
2018-05-10T11:12:01.167Z,79.50
2018-05-10T11:13:03.689Z,79.50
2018-05-10T11:14:06.256Z,78.70
2018-05-10T11:15:08.818Z,78.70
2018-05-10T11:16:11.341Z,77.40
2018-05-10T11:17:13.877Z,78.20
2018-05-10T11:18:16.410Z,79.10
2018-05-10T11:19:19.018Z,77.60
2018-05-10T11:20:21.558Z,77.00
2018-05-10T11:21:24.405Z,78.20
2018-05-10T11:22:27.055Z,80.00
2018-05-10T11:23:29.798Z,79.90
2018-05-10T11:24:32.413Z,78.10
2018-05-10T11:25:35.002Z,76.90
2018-05-10T11:26:37.645Z,77.90
2018-05-10T11:27:40.213Z,76.90
2018-05-10T11:28:42.741Z,78.40
2018-05-10T11:29:45.277Z,77.40
2018-05-10T11:30:48.917Z,77.20
2018-05-10T11:31:51.704Z,77.20
2018-05-10T11:32:55.569Z,79.10
2018-05-10T11:33:58.551Z,79.00
2018-05-10T11:35:01.137Z,79.20
2018-05-10T11:36:03.667Z,79.30
2018-05-10T11:37:06.209Z,78.10
2018-05-10T11:38:08.786Z,77.80
2018-05-10T11:39:12.137Z,78.40
2018-05-10T11:40:14.677Z,78.30
2018-05-10T11:41:17.214Z,78.20
2018-05-10T11:42:20.507Z,77.80
2018-05-10T11:43:23.040Z,77.70
2018-05-10T11:44:25.715Z,76.70
2018-05-10T11:45:28.171Z,77.40
2018-05-10T11:46:30.740Z,75.80
2018-05-10T11:47:33.268Z,77.20
2018-05-10T11:48:35.894Z,77.40
2018-05-10T11:49:38.420Z,76.60
2018-05-10T11:50:40.948Z,77.00
2018-05-10T11:51:43.527Z,75.80
2018-05-10T11:52:46.063Z,77.20
2018-05-10T11:53:49.389Z,77.40
2018-05-10T11:54:51.960Z,77.40
2018-05-10T11:55:54.493Z,78.70
2018-05-10T11:56:57.021Z,77.80
2018-05-10T11:57:59.561Z,76.40
2018-05-10T11:59:02.093Z,76.40
2018-05-10T12:00:04.681Z,75.40
2018-05-10T12:01:07.216Z,77.10
2018-05-10T12:02:09.762Z,76.20
2018-05-10T12:03:13.394Z,77.50
2018-05-10T12:04:15.967Z,77.50
2018-05-10T12:05:18.529Z,77.30
2018-05-10T12:06:21.068Z,76.00
2018-05-10T12:07:24.359Z,76.90
2018-05-10T12:08:26.910Z,76.90
2018-05-10T12:09:30.242Z,79.10
2018-05-10T12:10:32.781Z,79.10
2018-05-10T12:11:35.309Z,78.70
2018-05-10T12:12:37.880Z,79.40
2018-05-10T12:13:40.407Z,80.10
2018-05-10T12:14:42.948Z,79.60
2018-05-10T12:15:45.529Z,79.40
2018-05-10T12:16:48.073Z,80.00
2018-05-10T12:17:51.366Z,80.40
2018-05-10T12:18:53.896Z,80.40
2018-05-10T12:19:56.428Z,81.00
2018-05-10T12:20:59.001Z,82.30
2018-05-10T12:22:01.533Z,81.90
2018-05-10T12:23:04.107Z,82.10
2018-05-10T12:24:06.656Z,82.10
2018-05-10T12:25:09.200Z,82.80
2018-05-10T12:26:12.496Z,83.80
2018-05-10T12:27:15.785Z,83.40
2018-05-10T12:28:19.112Z,83.60
2018-05-10T12:29:21.636Z,83.60
2018-05-10T12:30:24.184Z,84.50
2018-05-10T12:31:27.501Z,84.50
2018-05-10T12:32:30.069Z,84.50
2018-05-10T12:33:32.623Z,84.90
2018-05-10T12:34:35.154Z,85.30
2018-05-10T12:35:37.691Z,85.20
2018-05-10T12:36:40.996Z,85.00
2018-05-10T12:37:43.558Z,84.90
2018-05-10T12:38:46.088Z,84.90
2018-05-10T12:39:48.635Z,85.40
2018-05-10T12:40:51.168Z,87.00
2018-05-10T12:41:53.709Z,85.90
2018-05-10T12:42:56.317Z,86.80
2018-05-10T12:43:59.693Z,87.70
2018-05-10T12:45:02.262Z,87.60
2018-05-10T12:46:04.802Z,88.30
2018-05-10T12:47:07.353Z,89.30
2018-05-10T12:48:09.950Z,89.30
2018-05-10T12:49:12.485Z,89.40
2018-05-10T12:50:15.019Z,89.80
2018-05-10T12:51:17.588Z,90.20
2018-05-10T12:52:20.132Z,89.40
2018-05-10T12:53:23.465Z,90.20
2018-05-10T12:54:25.995Z,89.90
2018-05-10T12:55:29.320Z,90.00
2018-05-10T12:56:31.990Z,90.00
2018-05-10T12:57:34.411Z,89.30
2018-05-10T12:58:37.709Z,89.00
2018-05-10T12:59:40.235Z,88.80
2018-05-10T13:00:42.889Z,89.00
2018-05-10T13:01:45.373Z,88.90
2018-05-10T13:02:47.918Z,88.70
2018-05-10T13:03:50.460Z,88.50
2018-05-10T13:04:52.987Z,88.70
2018-05-10T13:05:56.340Z,88.70
2018-05-10T13:06:58.877Z,88.70
2018-05-10T13:08:01.408Z,89.00
2018-05-10T13:09:04.766Z,88.00
2018-05-10T13:10:07.300Z,87.90
2018-05-10T13:11:09.872Z,87.60
2018-05-10T13:12:12.404Z,87.40
2018-05-10T13:13:14.971Z,87.70
2018-05-10T13:14:18.259Z,89.00
2018-05-10T13:15:20.790Z,89.00
2018-05-10T13:16:23.367Z,88.50
2018-05-10T13:17:26.669Z,89.70
2018-05-10T13:18:29.246Z,89.60
2018-05-10T13:19:31.791Z,91.20
2018-05-10T13:20:35.109Z,90.20
2018-05-10T13:21:37.647Z,90.30
2018-05-10T13:22:40.198Z,89.50
2018-05-10T13:23:43.544Z,88.70
2018-05-10T13:24:46.150Z,88.60
2018-05-10T13:25:48.677Z,89.00
2018-05-10T13:26:51.206Z,89.90
2018-05-10T13:27:53.747Z,88.90
2018-05-10T13:28:56.357Z,89.70
2018-05-10T13:29:58.939Z,87.00
2018-05-10T13:31:01.464Z,89.20
2018-05-10T13:32:04.771Z,88.50
2018-05-10T13:33:07.320Z,88.40
2018-05-10T13:34:10.621Z,86.80